Glenhaven, CA (95443)

7:54 PM PDT on August 27, 2014 (GMT -0700)
Indian Beach | Change Station
CLOSE
Current Station
Personal Weather Station
Location: Clearlake Oaks, CA
Elevation: 1339 ft
Nearby Weather Stations

Elev 1339 ft 39.02 °N, 122.72 °W | Updated 3 minutes ago

Clear
Clear
84.2 °F
Feels Like 84 °F
N
2.2
Wind Variable Wind from NW
Gusts 2.7 mph

Today
High -- | Low -- °F
--% Chance of Precip.
Yesterday
High -- | Low -- °F
Precip. -- in
6:35 AM 7:48 PM
Waxing Crescent, 6% visible
Pressure 29.94 in
Visibility 10.0 miles
Clouds Clear
Heat Index 84 °F
Dew Point 63 °F
Humidity 41%
Rainfall 0.00 in
Snow Depth Not available.
UV 0 out of 12
Pollen 8.60 out of 12
Air Quality Not available.
Flu Activity Not available.
METAR KUKI 280156Z AUTO 03008KT 10SM CLR 31/11 A2996 RMK AO2 SLP139 T03110106

More Conditions Fewer Conditions

Pressure 29.94 in
Visibility 10.0 miles
Clouds Clear
Heat Index 84 °F
Dew Point 63 °F
Humidity 41%
Rainfall 0.00 in
Snow Depth Not available.
UV 0 out of 12
Pollen 8.60 out of 12
Air Quality Not available.
Flu Activity Not available.
METAR KUKI 280156Z AUTO 03008KT 10SM CLR 31/11 A2996 RMK AO2 SLP139 T03110106

More Conditions Fewer Conditions

10-Day Weather Forecast

Almanac

Astronomy

Aug. 27, 2014 Rise Set
Actual Time 6:35 AM PDT 7:48 PM PDT
Civil Twilight 6:07 AM PDT 8:16 PM PDT
Nautical Twilight 5:34 AM PDT 8:49 PM PDT
Astronomical Twilight 4:59 AM PDT 9:23 PM PDT
Moon 8:35 AM PDT (8/27) 8:45 PM PDT (8/27)
Length of Visible Light 14h 08m
Length of Day
13h 13m
Tomorrow will be 2m 23s shorter.
Waxing Crescent, 6% of the Moon is Illuminated
Today
Waxing Crescent
Sep 2
First Quarter
Sep 8
Full
Sep 15
Last Quarter
Sep 24
New

Today's Extremes

State Highs State Lows

Community

WunderPhotos

Upload Photos

1,747,884 photos uploaded!

Nearby

Snow Depth

Station Depth Elevation
CSS Lab 0 in 6900 ft
Rubicon #2 0 in 7500 ft
Hagan's Meadow 0 in 8000 ft
Monitor Pass 0 in 8350 ft
Leavitt Meadows 1 in 7200 ft

Earthquake Activity

City Distance Mag. Time & Date
Napa, California 58 miles 2.6 11:57 AM PDT
2014-08-27
The Geysers, California 15 miles 2.6 7:42 AM PDT
2014-08-27
Napa, California 58 miles 2.5 10:56 AM PDT
2014-08-26
Napa, California 58 miles 3.0 6:45 AM PDT
2014-08-26
Minimum magnitude displayed is 2.5.

Coastal Water Temperatures

Place Temperature
No Stations Reporting

Nearby Weather Stations